Time;durP1;ratioP1;P1;durP2;ratioP2;P2;SDS_P1;SDS_P2;PMS_P1;PMS_P2;Temp;Humidity;BMP_temperature;BMP_pressure;BME280_temperature;BME280_humidity;BME280_pressure;Samples;Min_cycle;Max_cycle;Signal;HPM_P1;HPM_P2
2023/01/15 00:01:03;;;;;;;12.70;2.73;;;6.50;99.90;;;;;;5113339;28;20296;-75
2023/01/15 00:03:30;;;;;;;15.73;2.43;;;6.40;99.90;;;;;;5112175;28;20282;-75
2023/01/15 00:05:56;;;;;;;13.37;2.33;;;6.50;99.90;;;;;;5112163;28;20277;-75
2023/01/15 00:08:21;;;;;;;12.67;2.17;;;6.40;99.90;;;;;;5112633;28;20834;-75
2023/01/15 00:10:48;;;;;;;15.83;3.13;;;6.40;99.90;;;;;;5113489;28;20297;-75
2023/01/15 00:13:13;;;;;;;15.40;2.67;;;6.40;99.90;;;;;;5113217;28;20052;-75
2023/01/15 00:15:39;;;;;;;18.80;2.90;;;6.40;99.90;;;;;;5111951;28;20803;-75
2023/01/15 00:18:05;;;;;;;17.23;2.60;;;6.40;99.90;;;;;;5113223;28;20040;-75
2023/01/15 00:20:30;;;;;;;20.77;3.00;;;6.40;99.90;;;;;;5111975;28;20051;-75
2023/01/15 00:22:56;;;;;;;18.27;2.90;;;6.40;99.90;;;;;;5112233;28;20066;-75
2023/01/15 00:28:06;;;;;;;16.33;2.70;;;6.40;99.90;;;;;;5113117;28;20471;-75
2023/01/15 00:30:32;;;;;;;18.23;3.10;;;6.40;99.90;;;;;;5112849;28;20319;-75
2023/01/15 00:32:58;;;;;;;18.53;3.37;;;6.40;99.90;;;;;;5111903;28;20055;-75
2023/01/15 00:35:24;;;;;;;21.23;2.77;;;6.40;99.90;;;;;;5094938;28;20056;-75
2023/01/15 00:37:50;;;;;;;21.15;3.17;;;6.40;99.90;;;;;;5112968;28;20280;-75
2023/01/15 00:40:17;;;;;;;19.73;2.47;;;6.40;99.90;;;;;;5112978;28;20090;-75
2023/01/15 00:42:43;;;;;;;20.13;2.80;;;6.40;99.90;;;;;;5112756;28;20336;-75
2023/01/15 00:45:11;;;;;;;15.27;2.50;;;6.40;99.90;;;;;;5112032;28;20047;-74
2023/01/15 00:47:38;;;;;;;14.32;2.50;;;6.40;99.90;;;;;;5094453;28;20495;-75
2023/01/15 00:50:06;;;;;;;16.20;2.58;;;6.40;99.90;;;;;;5112863;28;20048;-75
2023/01/15 00:52:32;;;;;;;13.65;2.47;;;6.40;99.90;;;;;;5111715;28;20396;-75
2023/01/15 00:54:58;;;;;;;19.47;2.30;;;6.40;99.90;;;;;;5115469;28;20055;-75
2023/01/15 00:57:23;;;;;;;18.23;2.80;;;6.40;99.90;;;;;;5116418;28;20452;-75
2023/01/15 00:59:49;;;;;;;15.13;2.03;;;6.40;99.90;;;;;;5115609;28;20294;-75
2023/01/15 01:02:15;;;;;;;14.73;2.80;;;6.40;99.90;;;;;;5115514;28;20054;-75
2023/01/15 01:04:41;;;;;;;13.77;3.17;;;6.40;99.90;;;;;;5115057;28;20498;-75
2023/01/15 01:07:06;;;;;;;17.77;2.80;;;6.40;99.90;;;;;;5115322;28;20043;-75
2023/01/15 01:09:32;;;;;;;13.20;2.57;;;6.40;99.90;;;;;;5115667;27;20130;-75
2023/01/15 01:11:58;;;;;;;17.17;2.30;;;6.40;99.90;;;;;;5116571;28;20507;-75
2023/01/15 01:14:24;;;;;;;15.90;2.80;;;6.40;99.90;;;;;;5116018;28;20479;-81
2023/01/15 01:16:49;;;;;;;21.00;2.30;;;6.40;99.90;;;;;;5116194;28;20483;-74
2023/01/15 01:19:18;;;;;;;17.70;2.50;;;6.30;99.90;;;;;;5116160;28;20458;-75
2023/01/15 01:21:45;;;;;;;17.37;2.77;;;6.30;99.90;;;;;;5114844;28;20082;-75
2023/01/15 01:24:13;;;;;;;17.57;2.70;;;6.30;99.90;;;;;;5116139;28;20297;-75
2023/01/15 01:26:39;;;;;;;11.50;2.63;;;6.30;99.90;;;;;;5115664;28;20281;-75
2023/01/15 01:29:05;;;;;;;15.93;2.57;;;6.30;99.90;;;;;;5116084;28;20293;-75
2023/01/15 01:31:31;;;;;;;21.53;2.40;;;6.30;99.90;;;;;;5115623;28;20741;-75
2023/01/15 01:33:58;;;;;;;17.37;2.80;;;6.20;99.90;;;;;;5114855;28;20387;-75
2023/01/15 01:36:33;;;;;;;12.90;2.70;;;6.30;99.90;;;;;;5114599;28;20086;-74
2023/01/15 01:39:00;;;;;;;16.35;1.92;;;6.30;99.90;;;;;;5115692;28;20286;-75
2023/01/15 01:41:26;;;;;;;17.77;2.72;;;6.20;99.90;;;;;;5097819;28;20048;-74
2023/01/15 01:44:04;;;;;;;18.47;3.20;;;6.20;99.90;;;;;;5115597;28;20047;-74
2023/01/15 01:46:32;;;;;;;17.48;2.45;;;6.20;99.90;;;;;;5115775;28;20601;-75
2023/01/15 01:49:09;;;;;;;16.13;3.03;;;6.20;99.90;;;;;;5115420;28;20047;-75
2023/01/15 01:51:45;;;;;;;19.80;3.10;;;6.20;99.90;;;;;;5115393;28;20361;-74
2023/01/15 01:54:14;;;;;;;16.60;2.80;;;6.20;99.90;;;;;;5115505;28;20277;-74
2023/01/15 01:56:40;;;;;;;25.33;4.35;;;6.20;99.90;;;;;;5114110;28;20282;-74
2023/01/15 01:59:07;;;;;;;20.15;3.50;;;6.20;99.90;;;;;;5115335;28;20051;-74
2023/01/15 02:01:33;;;;;;;17.93;2.90;;;6.20;99.90;;;;;;5115141;28;20058;-75
2023/01/15 02:03:59;;;;;;;20.03;3.57;;;6.20;99.90;;;;;;5115163;28;20304;-74
2023/01/15 02:06:26;;;;;;;16.37;2.57;;;6.20;99.90;;;;;;5114382;28;20749;-74
2023/01/15 02:08:52;;;;;;;15.60;2.60;;;6.20;99.90;;;;;;5096512;28;20043;-75
2023/01/15 02:11:20;;;;;;;16.73;3.20;;;6.10;99.90;;;;;;5115154;28;20054;-74
2023/01/15 02:14:02;;;;;;;20.67;2.70;;;6.20;99.90;;;;;;5114768;28;20457;-74
2023/01/15 02:16:46;;;;;;;15.50;3.30;;;6.10;99.90;;;;;;5115173;28;20278;-75
2023/01/15 02:19:33;;;;;;;17.53;2.40;;;6.10;99.90;;;;;;5113796;28;20042;-74
2023/01/15 02:22:20;;;;;;;16.58;2.88;;;6.10;99.90;;;;;;5114571;28;20791;-75
2023/01/15 02:25:23;;;;;;;20.30;3.38;;;6.10;99.90;;;;;;5114640;28;20048;-75
2023/01/15 02:27:57;;;;;;;16.90;2.55;;;6.10;99.90;;;;;;5110329;28;20105;-75
2023/01/15 02:30:31;;;;;;;18.30;2.43;;;6.10;99.90;;;;;;5113735;28;20483;-74
2023/01/15 02:33:48;;;;;;;18.75;2.85;;;6.10;99.90;;;;;;5113712;28;20293;-75
2023/01/15 02:36:17;;;;;;;18.20;2.80;;;6.10;99.90;;;;;;5101971;28;20135;-75
2023/01/15 02:38:46;;;;;;;17.98;2.92;;;6.10;99.90;;;;;;5114248;28;20043;-74
2023/01/15 02:41:16;;;;;;;18.83;2.60;;;6.10;99.90;;;;;;5113582;28;20126;-74
2023/01/15 02:43:47;;;;;;;15.17;2.63;;;6.10;99.90;;;;;;5114274;28;20317;-74
2023/01/15 02:46:15;;;;;;;12.88;2.20;;;6.10;99.90;;;;;;5114445;28;20330;-74
2023/01/15 02:48:45;;;;;;;14.98;3.38;;;6.10;99.90;;;;;;5114030;28;20046;-74
2023/01/15 02:51:19;;;;;;;16.60;2.40;;;6.10;99.90;;;;;;5114598;28;20391;-74
2023/01/15 02:53:48;;;;;;;13.90;2.50;;;6.10;99.90;;;;;;5113766;28;20761;-74
2023/01/15 02:56:21;;;;;;;14.57;2.92;;;6.10;99.90;;;;;;5114236;28;20077;-74
2023/01/15 02:58:52;;;;;;;14.05;2.70;;;6.10;99.90;;;;;;5113010;28;20551;-74
2023/01/15 03:01:27;;;;;;;18.38;3.28;;;6.10;99.90;;;;;;5114396;28;20048;-74
2023/01/15 03:04:29;;;;;;;14.65;2.42;;;6.10;99.90;;;;;;5112578;28;20548;-74
2023/01/15 03:06:58;;;;;;;22.05;3.50;;;6.10;99.90;;;;;;5112868;28;20392;-74
2023/01/15 03:09:26;;;;;;;16.17;2.92;;;6.10;99.90;;;;;;5113424;28;20480;-74
2023/01/15 03:12:14;;;;;;;21.08;2.88;;;6.10;99.90;;;;;;5113697;28;20047;-74
2023/01/15 03:14:50;;;;;;;16.10;2.63;;;6.10;99.90;;;;;;5113500;28;20377;-74
2023/01/15 03:17:23;;;;;;;14.55;3.00;;;6.10;99.90;;;;;;5114081;28;20048;-74
2023/01/15 03:20:21;;;;;;;15.52;2.95;;;6.10;99.90;;;;;;5113256;28;20534;-74
2023/01/15 03:22:52;;;;;;;15.98;2.53;;;6.10;99.90;;;;;;5113233;28;20098;-74
2023/01/15 03:25:23;;;;;;;14.68;3.22;;;6.10;99.90;;;;;;5114066;28;20074;-74
2023/01/15 03:27:54;;;;;;;22.35;2.80;;;6.10;99.90;;;;;;5113391;28;20471;-74
2023/01/15 03:30:21;;;;;;;19.93;2.90;;;6.10;99.90;;;;;;5113812;28;20066;-74
2023/01/15 03:32:47;;;;;;;15.90;2.88;;;6.10;99.90;;;;;;5113323;28;20277;-74
2023/01/15 03:35:51;;;;;;;16.23;3.03;;;6.10;99.90;;;;;;5112605;28;20050;-74
2023/01/15 03:38:21;;;;;;;16.38;2.63;;;6.10;99.90;;;;;;5113582;28;20549;-74
2023/01/15 03:40:57;;;;;;;18.70;2.38;;;6.00;99.90;;;;;;5113350;28;20086;-74
2023/01/15 03:43:45;;;;;;;15.25;2.42;;;6.00;99.90;;;;;;5113531;28;20050;-74
2023/01/15 03:46:34;;;;;;;14.00;2.20;;;6.00;99.90;;;;;;5113745;28;20050;-74
2023/01/15 03:49:10;;;;;;;18.75;3.15;;;6.00;99.90;;;;;;5097350;28;20262;-74
2023/01/15 03:51:44;;;;;;;15.25;2.70;;;6.00;99.90;;;;;;5112555;28;20126;-73
2023/01/15 03:54:18;;;;;;;17.92;3.20;;;6.00;99.90;;;;;;5113679;28;20056;-73
2023/01/15 03:56:54;;;;;;;12.82;2.35;;;6.00;99.90;;;;;;5113246;28;20399;-74
2023/01/15 03:59:52;;;;;;;21.85;3.17;;;5.90;99.90;;;;;;5113327;28;20040;-73
2023/01/15 04:02:19;;;;;;;22.45;3.60;;;5.90;99.90;;;;;;5113309;28;20090;-74
2023/01/15 04:04:46;;;;;;;16.60;3.35;;;5.90;99.90;;;;;;5113072;28;20075;-74
2023/01/15 04:07:12;;;;;;;17.40;2.65;;;5.90;99.90;;;;;;5113335;28;20116;-73
2023/01/15 04:09:39;;;;;;;13.75;2.63;;;5.90;99.90;;;;;;5112894;28;20112;-73
2023/01/15 04:12:06;;;;;;;18.42;2.97;;;5.90;99.90;;;;;;5111894;28;20395;-74
2023/01/15 04:14:32;;;;;;;15.75;2.80;;;5.90;99.90;;;;;;5113426;28;20083;-74
2023/01/15 04:16:58;;;;;;;14.85;2.97;;;5.90;99.90;;;;;;5113003;28;20048;-74
2023/01/15 04:19:24;;;;;;;14.00;2.67;;;5.80;99.90;;;;;;5095260;28;20088;-74
2023/01/15 04:21:49;;;;;;;20.13;2.93;;;5.90;99.90;;;;;;5112966;28;20048;-74
2023/01/15 04:24:15;;;;;;;17.20;2.13;;;5.80;99.90;;;;;;5111870;28;20571;-74
2023/01/15 04:26:41;;;;;;;19.37;2.47;;;5.80;99.90;;;;;;5112112;28;20040;-74
2023/01/15 04:29:07;;;;;;;17.70;2.83;;;5.80;99.90;;;;;;5112471;28;20048;-74
2023/01/15 04:31:34;;;;;;;11.93;2.20;;;5.80;99.90;;;;;;5117001;28;20047;-74
2023/01/15 04:34:01;;;;;;;19.25;2.60;;;5.80;99.90;;;;;;5116809;28;20051;-74
2023/01/15 04:36:26;;;;;;;18.55;2.55;;;5.80;99.90;;;;;;5117090;28;20086;-74
2023/01/15 04:38:53;;;;;;;17.27;3.00;;;5.80;99.90;;;;;;5115685;28;20102;-74
2023/01/15 04:44:06;;;;;;;15.00;2.80;;;5.80;99.90;;;;;;5115585;28;20478;-74
2023/01/15 04:46:36;;;;;;;13.32;2.17;;;5.80;99.90;;;;;;5115751;28;20048;-73
2023/01/15 04:49:04;;;;;;;13.80;2.90;;;5.80;99.90;;;;;;5116293;28;20035;-74
2023/01/15 04:51:30;;;;;;;11.37;1.97;;;5.80;99.90;;;;;;5098403;28;20097;-73
2023/01/15 04:53:56;;;;;;;15.40;3.20;;;5.80;99.90;;;;;;5116349;28;20285;-74
2023/01/15 04:56:21;;;;;;;16.97;2.40;;;5.70;99.90;;;;;;5116564;28;20496;-74
2023/01/15 04:58:47;;;;;;;14.60;2.93;;;5.70;99.90;;;;;;5116558;27;20491;-74
2023/01/15 05:01:14;;;;;;;14.10;2.40;;;5.70;99.90;;;;;;5115081;28;20044;-74
2023/01/15 05:03:41;;;;;;;16.10;2.35;;;5.60;99.90;;;;;;5116410;28;20047;-74
2023/01/15 05:06:07;;;;;;;17.13;2.70;;;5.70;99.90;;;;;;5116039;28;20043;-74
2023/01/15 05:08:33;;;;;;;17.15;2.63;;;5.60;99.90;;;;;;5116301;28;20035;-74
2023/01/15 05:11:03;;;;;;;9.87;2.43;;;5.60;99.90;;;;;;5115683;28;20403;-74
2023/01/15 05:13:31;;;;;;;15.10;2.28;;;5.60;99.90;;;;;;5116513;28;20387;-73
2023/01/15 05:16:07;;;;;;;13.68;2.22;;;5.60;99.90;;;;;;5114999;28;20043;-74
2023/01/15 05:18:32;;;;;;;15.98;2.75;;;5.60;99.90;;;;;;5116490;28;20453;-74
2023/01/15 05:20:58;;;;;;;18.30;2.90;;;5.60;99.90;;;;;;5114886;28;20044;-74
2023/01/15 05:23:24;;;;;;;15.37;2.67;;;5.60;99.90;;;;;;5116039;28;20054;-74
2023/01/15 05:25:49;;;;;;;16.87;2.53;;;5.60;99.90;;;;;;5116152;28;20185;-73
2023/01/15 05:28:15;;;;;;;16.43;2.80;;;5.60;99.90;;;;;;5115563;28;20452;-74
2023/01/15 05:30:41;;;;;;;20.03;3.87;;;5.50;99.90;;;;;;5114745;28;20092;-74
2023/01/15 05:33:06;;;;;;;13.97;2.00;;;5.50;99.90;;;;;;5114438;28;20556;-74
2023/01/15 05:35:32;;;;;;;12.93;2.23;;;5.50;99.90;;;;;;5115811;28;20040;-73
2023/01/15 05:37:58;;;;;;;15.80;2.20;;;5.50;99.90;;;;;;5115809;28;20131;-74
2023/01/15 05:40:23;;;;;;;17.47;3.27;;;5.50;99.90;;;;;;5097195;28;20044;-74
2023/01/15 05:42:49;;;;;;;15.23;2.90;;;5.50;99.90;;;;;;5115341;28;20048;-74
2023/01/15 05:45:15;;;;;;;17.53;2.70;;;5.50;99.90;;;;;;5115389;28;20050;-74
2023/01/15 05:47:40;;;;;;;13.87;2.70;;;5.40;99.90;;;;;;5114600;28;20430;-74
2023/01/15 05:50:06;;;;;;;15.17;2.90;;;5.40;99.90;;;;;;5115150;28;20048;-74
2023/01/15 05:52:32;;;;;;;11.20;1.95;;;5.40;99.90;;;;;;5114783;28;20154;-74
2023/01/15 05:54:58;;;;;;;13.50;2.77;;;5.40;99.90;;;;;;5114019;28;20443;-75
2023/01/15 05:57:23;;;;;;;16.47;2.80;;;5.40;99.90;;;;;;5115107;28;20077;-74
2023/01/15 05:59:49;;;;;;;13.93;2.03;;;5.40;99.90;;;;;;5115334;28;20035;-74
2023/01/15 06:02:15;;;;;;;15.00;2.37;;;5.40;99.90;;;;;;5113950;28;20284;-74
2023/01/15 06:04:41;;;;;;;16.27;3.03;;;5.40;99.90;;;;;;5115317;28;20039;-74
2023/01/15 06:07:06;;;;;;;18.10;2.63;;;5.30;99.90;;;;;;5114867;28;20130;-74
2023/01/15 06:09:32;;;;;;;11.37;1.77;;;5.30;99.90;;;;;;5113762;28;20077;-74
2023/01/15 06:11:58;;;;;;;14.37;2.50;;;5.30;99.90;;;;;;5114965;27;20058;-74
2023/01/15 06:14:24;;;;;;;18.20;2.53;;;5.40;99.90;;;;;;5114155;28;20494;-74
2023/01/15 06:16:49;;;;;;;13.97;2.63;;;5.30;99.90;;;;;;5114009;28;20052;-74
2023/01/15 06:19:16;;;;;;;14.93;2.10;;;5.30;99.90;;;;;;5114649;28;20043;-74
2023/01/15 06:21:41;;;;;;;13.98;3.97;;;5.30;99.90;;;;;;5113917;28;20066;-74
2023/01/15 06:24:08;;;;;;;15.73;2.67;;;5.30;99.90;;;;;;5114624;28;20464;-74
2023/01/15 06:26:34;;;;;;;16.27;2.72;;;5.30;99.90;;;;;;5113809;28;20463;-74
2023/01/15 06:28:59;;;;;;;11.23;2.10;;;5.30;99.90;;;;;;5114514;28;20039;-76
2023/01/15 06:31:25;;;;;;;12.10;1.80;;;5.30;99.90;;;;;;5113726;28;20052;-74
2023/01/15 06:33:51;;;;;;;14.83;2.50;;;5.30;99.90;;;;;;5114462;28;20043;-74
2023/01/15 06:36:20;;;;;;;11.70;2.35;;;5.20;99.90;;;;;;5096371;28;20281;-74
2023/01/15 06:38:46;;;;;;;14.82;2.30;;;5.30;99.90;;;;;;5114623;28;20043;-74
2023/01/15 06:49:36;;;;;;;9.32;1.75;;;5.30;99.90;;;;;;5114547;28;20048;-74
2023/01/15 06:52:02;;;;;;;8.98;2.10;;;5.40;99.90;;;;;;5113831;28;20497;-80
2023/01/15 06:54:28;;;;;;;12.43;2.38;;;5.40;99.90;;;;;;5114243;28;20047;-74
2023/01/15 06:56:54;;;;;;;9.65;1.90;;;5.30;99.90;;;;;;5096307;28;20058;-74
2023/01/15 06:59:20;;;;;;;14.73;2.17;;;5.30;99.90;;;;;;5112739;28;20123;-74
2023/01/15 07:01:46;;;;;;;14.77;2.22;;;5.30;99.90;;;;;;5114065;28;20483;-74
2023/01/15 07:04:12;;;;;;;11.07;2.13;;;5.20;99.90;;;;;;5113450;28;20122;-74
2023/01/15 07:06:38;;;;;;;15.30;2.77;;;5.30;99.90;;;;;;5114236;28;20055;-74
2023/01/15 07:09:04;;;;;;;14.05;3.03;;;5.20;99.90;;;;;;5113812;28;20076;-79
2023/01/15 07:11:29;;;;;;;15.85;2.28;;;5.30;99.90;;;;;;5113959;28;20059;-74
2023/01/15 07:14:04;;;;;;;11.77;2.10;;;5.30;99.90;;;;;;5112418;28;20059;-74
2023/01/15 07:16:34;;;;;;;14.80;2.35;;;5.30;99.90;;;;;;5113943;28;20052;-74
2023/01/15 07:19:00;;;;;;;12.68;2.10;;;5.40;99.90;;;;;;5113865;28;20047;-74
2023/01/15 07:21:26;;;;;;;12.55;2.33;;;5.40;99.90;;;;;;5113549;28;20439;-74
2023/01/15 07:23:52;;;;;;;9.43;2.10;;;5.40;99.90;;;;;;5113774;28;20052;-74
2023/01/15 07:26:18;;;;;;;13.15;2.88;;;5.40;99.90;;;;;;5113512;28;20051;-74
2023/01/15 07:28:44;;;;;;;16.63;2.60;;;5.40;99.90;;;;;;5113863;28;20032;-74
2023/01/15 07:31:10;;;;;;;14.17;2.03;;;5.40;99.90;;;;;;5112356;28;20388;-75
2023/01/15 07:33:36;;;;;;;20.97;2.47;;;5.40;99.90;;;;;;5113577;28;20043;-75
2023/01/15 07:36:03;;;;;;;11.77;1.97;;;5.40;99.90;;;;;;5112402;28;20297;-74
2023/01/15 07:38:28;;;;;;;11.13;2.47;;;5.40;99.90;;;;;;5113294;28;20564;-74
2023/01/15 07:51:56;;;;;;;12.32;1.92;;;5.40;99.90;;;;;;5113263;28;20514;-74
2023/01/15 07:54:22;;;;;;;15.80;2.27;;;5.40;99.90;;;;;;5113173;28;20152;-74
2023/01/15 07:56:49;;;;;;;14.87;2.50;;;5.40;99.90;;;;;;5113435;28;20437;-74
2023/01/15 07:59:15;;;;;;;12.35;2.10;;;5.40;99.90;;;;;;5113155;28;20089;-74
2023/01/15 08:01:40;;;;;;;13.23;2.33;;;5.40;99.90;;;;;;5113672;28;20051;-74
2023/01/15 08:04:06;;;;;;;19.90;2.50;;;5.40;99.90;;;;;;5114242;28;20506;-74
2023/01/15 08:06:32;;;;;;;16.43;2.30;;;5.40;99.90;;;;;;5117316;28;20043;-74
2023/01/15 08:08:57;;;;;;;17.23;2.80;;;5.40;99.90;;;;;;5099457;28;20079;-74
2023/01/15 08:16:54;;;;;;;14.07;2.45;;;5.50;99.90;;;;;;5117591;28;20392;-74
2023/01/15 08:19:20;;;;;;;10.63;2.23;;;5.50;99.90;;;;;;5099079;28;20051;-74
2023/01/15 08:21:46;;;;;;;15.30;2.37;;;5.50;99.90;;;;;;5117262;28;20055;-74
2023/01/15 08:24:12;;;;;;;12.27;2.33;;;5.40;99.90;;;;;;5117314;28;20051;-74
2023/01/15 08:26:38;;;;;;;14.20;2.20;;;5.40;99.90;;;;;;5117105;28;20043;-74
2023/01/15 08:29:04;;;;;;;14.20;2.23;;;5.40;99.90;;;;;;5117266;28;20042;-75
2023/01/15 08:31:29;;;;;;;11.73;2.53;;;5.40;99.90;;;;;;5115836;28;20476;-75
2023/01/15 08:33:55;;;;;;;11.33;2.47;;;5.40;99.90;;;;;;5117058;28;20058;-75
2023/01/15 08:36:21;;;;;;;15.27;3.10;;;5.50;99.90;;;;;;5116750;28;20470;-74
2023/01/15 08:38:50;;;;;;;11.40;2.20;;;5.50;99.90;;;;;;5116217;28;20131;-74
2023/01/15 08:41:15;;;;;;;17.67;2.40;;;5.40;99.90;;;;;;5116567;28;20146;-76
2023/01/15 08:43:41;;;;;;;13.70;2.77;;;5.40;99.90;;;;;;5116854;28;20040;-73
2023/01/15 08:46:08;;;;;;;12.67;2.47;;;5.40;99.90;;;;;;5116811;28;20043;-73
2023/01/15 08:48:34;;;;;;;15.75;2.85;;;5.30;99.90;;;;;;5115288;28;20066;-73
2023/01/15 08:51:07;;;;;;;14.63;2.60;;;5.20;99.90;;;;;;5116657;28;20044;-73
2023/01/15 08:53:33;;;;;;;16.08;2.67;;;5.20;99.90;;;;;;5116469;28;20047;-73
2023/01/15 08:55:59;;;;;;;12.48;2.70;;;5.20;99.90;;;;;;5115274;28;20046;-71
2023/01/15 08:58:28;;;;;;;14.07;2.63;;;5.20;99.90;;;;;;5116234;28;20044;-71
2023/01/15 09:00:54;;;;;;;15.85;2.17;;;5.20;99.90;;;;;;5117126;28;20280;-72
2023/01/15 09:03:20;;;;;;;10.30;2.10;;;5.30;99.90;;;;;;5116347;28;20044;-72
2023/01/15 09:05:45;;;;;;;14.83;2.47;;;5.30;99.90;;;;;;5116508;28;20056;-72
2023/01/15 09:08:11;;;;;;;10.33;1.97;;;5.40;99.90;;;;;;5116324;28;20388;-71
2023/01/15 09:10:37;;;;;;;17.07;2.27;;;5.40;99.90;;;;;;5115955;28;20142;-72
2023/01/15 09:13:03;;;;;;;12.37;2.70;;;5.40;99.90;;;;;;5116219;28;20048;-71
2023/01/15 09:15:31;;;;;;;14.93;2.22;;;5.40;99.90;;;;;;5114839;28;20451;-72
2023/01/15 09:17:57;;;;;;;20.05;2.83;;;5.50;99.90;;;;;;5116234;28;20441;-73
2023/01/15 09:20:24;;;;;;;17.25;2.42;;;5.60;99.90;;;;;;5115826;28;20059;-72
2023/01/15 09:22:50;;;;;;;13.30;2.97;;;5.70;99.90;;;;;;5116296;28;20051;-72
2023/01/15 09:25:18;;;;;;;15.23;3.25;;;5.70;99.90;;;;;;5115999;28;20047;-72
2023/01/15 09:27:44;;;;;;;12.65;2.35;;;5.80;99.90;;;;;;5115667;27;20484;-72
2023/01/15 09:30:15;;;;;;;16.70;2.42;;;5.90;99.90;;;;;;5114680;28;20046;-71
2023/01/15 09:32:41;;;;;;;15.38;2.42;;;5.90;99.90;;;;;;5115625;28;20085;-72
2023/01/15 09:35:07;;;;;;;12.70;2.63;;;5.90;99.90;;;;;;5115858;28;20043;-71
2023/01/15 09:37:33;;;;;;;13.20;2.42;;;6.00;99.90;;;;;;5115612;28;20075;-72
2023/01/15 09:40:01;;;;;;;15.13;2.37;;;6.10;99.90;;;;;;5116323;28;20491;-71
2023/01/15 09:43:00;;;;;;;16.75;2.97;;;6.00;99.90;;;;;;5097503;28;20047;-72
2023/01/15 09:45:35;;;;;;;16.30;3.28;;;6.10;99.90;;;;;;5098872;28;20443;-72
2023/01/15 09:48:23;;;;;;;12.38;2.53;;;6.10;99.90;;;;;;5115466;28;20403;-72
2023/01/15 09:50:56;;;;;;;16.13;2.72;;;6.20;99.90;;;;;;5115572;28;20104;-72
2023/01/15 09:53:31;;;;;;;12.52;2.90;;;6.20;99.90;;;;;;5114559;28;20047;-71
2023/01/15 09:56:00;;;;;;;13.40;2.30;;;6.20;99.90;;;;;;5115805;28;20096;-71
2023/01/15 09:58:37;;;;;;;14.88;2.90;;;6.30;99.90;;;;;;5115323;28;20118;-72
2023/01/15 10:01:04;;;;;;;13.07;2.13;;;6.30;99.90;;;;;;5115681;28;20052;-72
2023/01/15 10:03:46;;;;;;;18.38;2.83;;;6.30;99.90;;;;;;5115126;28;20439;-71
2023/01/15 10:06:26;;;;;;;15.00;2.70;;;6.40;99.90;;;;;;5114223;28;20051;-70
2023/01/15 10:09:07;;;;;;;18.88;3.00;;;6.40;99.90;;;;;;5115587;28;20079;-71
2023/01/15 10:14:37;;;;;;;13.27;2.78;;;6.50;99.90;;;;;;5113630;28;20047;-72
2023/01/15 10:17:14;;;;;;;18.67;2.95;;;6.60;99.90;;;;;;5113234;28;20043;-73
2023/01/15 10:19:40;;;;;;;14.75;2.50;;;6.70;99.90;;;;;;5112803;28;20067;-82
2023/01/15 10:22:19;;;;;;;11.53;2.77;;;6.80;99.90;;;;;;5114440;28;20139;-79
2023/01/15 10:24:55;;;;;;;15.48;3.00;;;6.80;99.90;;;;;;5113058;28;20040;-81
2023/01/15 10:27:23;;;;;;;17.48;2.90;;;6.80;99.90;;;;;;5112180;28;20043;-81
2023/01/15 10:30:05;;;;;;;12.40;2.50;;;6.70;99.90;;;;;;5113910;28;20054;-78
2023/01/15 10:32:52;;;;;;;11.98;2.35;;;6.70;99.90;;;;;;5113481;28;20483;-80
2023/01/15 10:35:39;;;;;;;12.77;2.17;;;6.60;99.90;;;;;;5121768;27;20047;-79
2023/01/15 10:38:20;;;;;;;12.77;2.05;;;6.60;99.90;;;;;;5111083;28;20638;-81
2023/01/15 10:41:15;;;;;;;16.58;3.50;;;6.60;99.90;;;;;;5112295;28;20095;-80
2023/01/15 10:43:56;;;;;;;13.55;2.58;;;6.60;99.90;;;;;;5114350;28;20043;-79
2023/01/15 10:46:32;;;;;;;14.07;2.40;;;6.60;99.90;;;;;;5114526;28;20047;-79
2023/01/15 10:49:16;;;;;;;14.25;2.70;;;6.60;99.90;;;;;;5096738;28;20409;-79
2023/01/15 10:51:45;;;;;;;13.57;2.88;;;6.50;99.90;;;;;;5114190;28;20372;-80
2023/01/15 10:54:20;;;;;;;18.73;2.65;;;6.50;99.90;;;;;;5114318;28;20044;-80
2023/01/15 10:57:10;;;;;;;12.82;2.03;;;6.60;99.90;;;;;;5112893;28;20124;-80
2023/01/15 10:59:42;;;;;;;19.15;3.13;;;6.70;99.90;;;;;;5114068;28;20043;-81
2023/01/15 11:02:39;;;;;;;16.05;3.10;;;6.80;99.90;;;;;;5114410;28;20043;-80
2023/01/15 11:05:08;;;;;;;17.20;2.67;;;6.90;99.90;;;;;;5097929;28;20442;-72
2023/01/15 11:07:39;;;;;;;13.93;2.50;;;7.10;99.90;;;;;;5113417;28;20084;-81
2023/01/15 11:10:13;;;;;;;16.20;3.08;;;7.20;99.90;;;;;;5113041;28;20507;-79
2023/01/15 11:21:18;;;;;;;19.00;2.97;;;7.20;99.90;;;;;;5114217;28;20051;-76
2023/01/15 11:23:45;;;;;;;16.60;2.77;;;7.20;99.90;;;;;;5113726;28;20052;-78
2023/01/15 11:26:25;;;;;;;22.63;3.57;;;7.20;99.90;;;;;;5113786;28;20303;-78
2023/01/15 11:28:52;;;;;;;13.38;2.92;;;7.20;99.90;;;;;;5113416;28;20285;-79
2023/01/15 11:31:18;;;;;;;15.63;3.38;;;7.20;99.90;;;;;;5113668;28;20051;-75
2023/01/15 11:33:57;;;;;;;12.90;2.50;;;7.10;99.90;;;;;;5113473;28;20047;-77
2023/01/15 11:36:25;;;;;;;16.73;3.13;;;7.10;99.90;;;;;;5113098;28;20277;-76
2023/01/15 11:38:52;;;;;;;18.50;3.57;;;7.10;99.90;;;;;;5111010;28;20103;-78
2023/01/15 11:52:49;;;;;;;20.85;2.92;;;7.10;99.90;;;;;;5111225;28;20273;-77
2023/01/15 11:55:19;;;;;;;15.40;3.10;;;7.10;99.90;;;;;;5113041;28;20503;-81
2023/01/15 11:57:45;;;;;;;19.40;3.93;;;7.10;99.90;;;;;;5111757;28;20278;-77
2023/01/15 12:00:31;;;;;;;23.88;4.32;;;7.10;99.90;;;;;;5112958;28;20305;-75
2023/01/15 12:03:01;;;;;;;;;;;7.20;99.90;;;;;;5113282;28;20047;-75
2023/01/15 12:05:30;;;;;;;16.75;2.78;;;7.10;99.90;;;;;;5113248;28;19965;-75
2023/01/15 12:08:01;;;;;;;16.43;2.83;;;7.10;99.90;;;;;;5112095;28;20058;-75
2023/01/15 12:13:45;;;;;;;16.73;2.95;;;7.10;99.90;;;;;;5113327;28;20281;-74
2023/01/15 12:16:40;;;;;;;14.57;2.70;;;7.10;99.90;;;;;;5113334;28;20087;-75
2023/01/15 12:19:08;;;;;;;19.77;3.25;;;7.10;99.90;;;;;;5113004;28;20269;-74
2023/01/15 12:22:08;;;;;;;13.77;2.58;;;7.10;99.90;;;;;;5113429;28;20044;-73
2023/01/15 12:25:00;;;;;;;19.27;3.40;;;7.00;99.90;;;;;;5113402;28;20051;-72
2023/01/15 12:27:55;;;;;;;18.77;3.65;;;6.90;99.90;;;;;;5092671;28;20139;-71
2023/01/15 12:30:37;;;;;;;18.02;2.42;;;6.60;99.90;;;;;;5109751;28;20052;-77
2023/01/15 12:33:16;;;;;;;17.00;2.73;;;6.50;99.90;;;;;;5106525;28;20036;-71
2023/01/15 12:35:47;;;;;;;12.13;2.35;;;6.40;99.90;;;;;;5111891;28;20281;-73
2023/01/15 12:38:23;;;;;;;15.80;2.53;;;6.30;99.90;;;;;;5106565;28;20047;-70
2023/01/15 12:40:56;;;;;;;12.68;1.85;;;6.20;99.90;;;;;;5108536;28;20301;-72
2023/01/15 12:46:16;;;;;;;19.48;3.35;;;6.10;99.90;;;;;;5111354;28;20274;-71
2023/01/15 12:48:47;;;;;;;11.68;2.25;;;6.10;99.90;;;;;;5104128;28;20028;-71
2023/01/15 12:51:21;;;;;;;9.80;1.80;;;6.00;99.90;;;;;;5112216;28;20449;-75
2023/01/15 12:53:54;;;;;;;11.38;2.55;;;6.00;99.90;;;;;;5109856;28;20277;-78
2023/01/15 12:56:53;;;;;;;11.25;1.90;;;6.00;99.90;;;;;;5115203;28;20050;-72
2023/01/15 12:59:28;;;;;;;8.63;1.90;;;6.00;99.90;;;;;;5105398;28;20457;-73
2023/01/15 13:02:34;;;;;;;12.80;2.05;;;6.10;99.90;;;;;;5115119;28;20093;-73
2023/01/15 13:05:16;;;;;;;8.80;1.40;;;6.10;99.90;;;;;;5098921;28;20055;-71
2023/01/15 13:08:03;;;;;;;6.65;1.42;;;6.10;99.90;;;;;;5114851;28;20039;-71
2023/01/15 13:10:34;;;;;;;8.90;1.90;;;6.10;99.90;;;;;;5108128;28;20074;-70
2023/01/15 13:13:24;;;;;;;9.95;1.70;;;6.10;99.90;;;;;;5113405;28;20031;-72
2023/01/15 13:16:17;;;;;;;11.77;1.52;;;6.10;99.90;;;;;;5109967;28;20047;-76
2023/01/15 13:18:48;;;;;;;11.15;2.13;;;6.10;99.90;;;;;;5113812;28;20093;-71
2023/01/15 13:21:17;;;;;;;10.50;2.20;;;6.10;99.90;;;;;;5112777;28;20055;-73
2023/01/15 13:24:07;;;;;;;13.23;1.85;;;6.20;99.90;;;;;;5115397;28;20046;-72
2023/01/15 13:26:33;;;;;;;11.57;2.20;;;6.20;99.90;;;;;;5115626;28;20039;-77
2023/01/15 13:29:17;;;;;;;14.83;2.33;;;6.20;99.90;;;;;;5112233;28;20440;-73
2023/01/15 13:31:52;;;;;;;10.80;2.47;;;6.20;99.90;;;;;;5113765;28;20063;-72
2023/01/15 13:34:27;;;;;;;10.13;1.92;;;6.20;99.90;;;;;;5114376;28;20043;-71
2023/01/15 13:36:56;;;;;;;13.85;1.98;;;6.20;99.90;;;;;;5114023;28;20518;-75
2023/01/15 13:39:29;;;;;;;10.45;2.00;;;6.20;99.90;;;;;;5112737;28;20035;-73
2023/01/15 13:44:46;;;;;;;11.23;1.70;;;6.20;99.90;;;;;;5114677;28;20047;-72
2023/01/15 13:47:19;;;;;;;14.93;2.85;;;6.30;99.90;;;;;;5114170;28;20387;-73
2023/01/15 13:49:52;;;;;;;10.93;2.35;;;6.30;99.90;;;;;;5112899;28;20399;-72
2023/01/15 13:52:30;;;;;;;13.25;2.28;;;6.30;99.90;;;;;;5114197;28;20463;-72
2023/01/15 13:55:12;;;;;;;15.25;2.72;;;6.30;99.90;;;;;;5111227;28;20051;-72
2023/01/15 13:57:40;;;;;;;13.20;2.35;;;6.30;99.90;;;;;;5113930;28;20069;-72
2023/01/15 14:00:08;;;;;;;16.15;2.80;;;6.40;99.90;;;;;;5112313;28;20069;-72
2023/01/15 14:02:37;;;;;;;12.82;2.38;;;6.50;99.90;;;;;;5113427;28;20048;-72
2023/01/15 14:05:21;;;;;;;16.85;2.65;;;6.50;99.90;;;;;;5113573;28;20078;-73
2023/01/15 14:07:48;;;;;;;19.23;3.30;;;6.50;99.90;;;;;;5114146;28;20039;-72
2023/01/15 14:10:17;;;;;;;13.10;2.83;;;6.50;99.90;;;;;;5110465;28;20313;-72